PWSweather.com
Personal Weather Stations
Station Observations
GEELONGWX1
Bell Post Hill, GeelongAU

Bell Post HillGeelongAU

Lat: -38.101, Lon: 144.326

Elevation: 204

Station Type: Davis Vantage Pro2

http://www.geelongweather.com

High Low Average
Temperature 81.4°F27.4°C 57.6°F14.2°C 70.3°F21.3°C
Dew Point 63.4°F17.4°C 51.5°F10.8°C 58.2°F14.6°C
Winds 11.5 mph 18.5 kmh Calm Calm 5.0 mph E8.0 kmh E
Wind Gusts 19.6 mph31.5 kmh -- 8.0 mph12.9 kmh
Humidity 84% 49% 67%
Pressure 30.24 in1024.0 mb 30.02 in1016.6 mb -
Precipitation 0.00 in0.0 mm - -
Hour Temp Dew Point Humidity Winds Wind Gusts Pressure Precip Precip Rate Daily Precip Total
12:00 AM 60.5°F15.8°C 52.5°F11.4°C 75% Calm Calm -- 30.24 in1024.0 mb - 0.00 in0.0 mm 0.00 in0.0 mm
12:10 AM 60.4°F15.8°C 52.4°F11.3°C 75% Calm Calm -- 30.24 in1024.0 mb - 0.00 in0.0 mm 0.00 in0.0 mm
12:20 AM 60.3°F15.7°C 52.7°F11.5°C 76% 2.3 mph E3.7 kmh E 3.5 mph5.6 kmh 30.24 in1024.0 mb - 0.00 in0.0 mm 0.00 in0.0 mm
12:30 AM 60.2°F15.7°C 52.6°F11.4°C 76% 2.3 mph E3.7 kmh E 3.5 mph5.6 kmh 30.24 in1024.0 mb - 0.00 in0.0 mm 0.00 in0.0 mm
12:40 AM 60.1°F15.6°C 52.5°F11.4°C 76% 3.5 mph E5.6 kmh E 5.8 mph9.3 kmh 30.23 in1023.7 mb - 0.00 in0.0 mm 0.00 in0.0 mm
12:50 AM 60.0°F15.6°C 52.4°F11.3°C 76% 3.5 mph E5.6 kmh E 4.6 mph7.4 kmh 30.23 in1023.7 mb - 0.00 in0.0 mm 0.00 in0.0 mm
01:00 AM 59.9°F15.5°C 52.7°F11.5°C 77% 4.6 mph E7.4 kmh E 5.8 mph9.3 kmh 30.23 in1023.7 mb - 0.00 in0.0 mm 0.00 in0.0 mm
01:10 AM 59.8°F15.4°C 52.6°F11.4°C 77% 3.5 mph ENE5.6 kmh ENE 4.6 mph7.4 kmh 30.23 in1023.7 mb - 0.00 in0.0 mm 0.00 in0.0 mm
01:20 AM 59.6°F15.3°C 52.4°F11.3°C 77% Calm Calm -- 30.23 in1023.7 mb - 0.00 in0.0 mm 0.00 in0.0 mm
01:30 AM 59.4°F15.2°C 51.9°F11.1°C 76% 4.6 mph ENE7.4 kmh ENE 6.9 mph11.1 kmh 30.23 in1023.7 mb - 0.00 in0.0 mm 0.00 in0.0 mm
01:40 AM 59.2°F15.1°C 51.6°F10.9°C 76% 2.3 mph E3.7 kmh E 3.5 mph5.6 kmh 30.22 in1023.4 mb - 0.00 in0.0 mm 0.00 in0.0 mm
01:50 AM 59.0°F15.0°C 51.5°F10.8°C 76% 3.5 mph E5.6 kmh E 4.6 mph7.4 kmh 30.22 in1023.4 mb - 0.00 in0.0 mm 0.00 in0.0 mm
02:00 AM 58.9°F14.9°C 51.7°F10.9°C 77% 3.5 mph E5.6 kmh E 5.8 mph9.3 kmh 30.21 in1023.0 mb - 0.00 in0.0 mm 0.00 in0.0 mm
02:10 AM 58.8°F14.9°C 51.6°F10.9°C 77% 4.6 mph E7.4 kmh E 11.5 mph18.5 kmh 30.21 in1023.0 mb - 0.00 in0.0 mm 0.00 in0.0 mm
02:20 AM 58.8°F14.9°C 51.6°F10.9°C 77% 3.5 mph E5.6 kmh E 6.9 mph11.1 kmh 30.20 in1022.7 mb - 0.00 in0.0 mm 0.00 in0.0 mm
02:30 AM 58.8°F14.9°C 52.0°F11.1°C 78% 3.5 mph E5.6 kmh E 9.2 mph14.8 kmh 30.20 in1022.7 mb - 0.00 in0.0 mm 0.00 in0.0 mm
02:40 AM 58.8°F14.9°C 52.0°F11.1°C 78% 2.3 mph E3.7 kmh E 4.6 mph7.4 kmh 30.20 in1022.7 mb - 0.00 in0.0 mm 0.00 in0.0 mm
02:50 AM 58.8°F14.9°C 52.3°F11.3°C 79% 1.2 mph E1.9 kmh E 2.3 mph3.7 kmh 30.19 in1022.4 mb - 0.00 in0.0 mm 0.00 in0.0 mm
03:00 AM 58.7°F14.8°C 52.2°F11.2°C 79% 2.3 mph E3.7 kmh E 5.8 mph9.3 kmh 30.19 in1022.4 mb - 0.00 in0.0 mm 0.00 in0.0 mm
03:10 AM 58.6°F14.8°C 52.1°F11.2°C 79% 3.5 mph E5.6 kmh E 3.5 mph5.6 kmh 30.19 in1022.4 mb - 0.00 in0.0 mm 0.00 in0.0 mm
03:20 AM 58.5°F14.7°C 52.0°F11.1°C 79% 2.3 mph E3.7 kmh E 6.9 mph11.1 kmh 30.19 in1022.4 mb - 0.00 in0.0 mm 0.00 in0.0 mm
03:30 AM 58.4°F14.7°C 51.9°F11.1°C 79% 1.2 mph E1.9 kmh E 3.5 mph5.6 kmh 30.19 in1022.4 mb - 0.00 in0.0 mm 0.00 in0.0 mm
03:40 AM 58.3°F14.6°C 51.8°F11.0°C 79% Calm Calm 2.3 mph3.7 kmh 30.19 in1022.4 mb - 0.00 in0.0 mm 0.00 in0.0 mm
03:50 AM 58.2°F14.6°C 52.1°F11.2°C 80% 2.3 mph ENE3.7 kmh ENE 3.5 mph5.6 kmh 30.19 in1022.4 mb - 0.00 in0.0 mm 0.00 in0.0 mm
04:00 AM 58.1°F14.5°C 52.0°F11.1°C 80% 3.5 mph ENE5.6 kmh ENE 5.8 mph9.3 kmh 30.19 in1022.4 mb - 0.00 in0.0 mm 0.00 in0.0 mm
04:10 AM 58.1°F14.5°C 52.0°F11.1°C 80% 2.3 mph E3.7 kmh E 2.3 mph3.7 kmh 30.19 in1022.4 mb - 0.00 in0.0 mm 0.00 in0.0 mm
04:20 AM 58.0°F14.4°C 51.9°F11.1°C 80% 1.2 mph E1.9 kmh E 1.2 mph1.9 kmh 30.19 in1022.4 mb - 0.00 in0.0 mm 0.00 in0.0 mm
04:30 AM 58.0°F14.4°C 51.9°F11.1°C 80% Calm Calm 4.6 mph7.4 kmh 30.19 in1022.4 mb - 0.00 in0.0 mm 0.00 in0.0 mm
04:40 AM 57.9°F14.4°C 52.1°F11.2°C 81% 2.3 mph E3.7 kmh E 3.5 mph5.6 kmh 30.19 in1022.4 mb - 0.00 in0.0 mm 0.00 in0.0 mm
04:50 AM 57.8°F14.3°C 52.0°F11.1°C 81% 3.5 mph E5.6 kmh E 5.8 mph9.3 kmh 30.19 in1022.4 mb - 0.00 in0.0 mm 0.00 in0.0 mm
05:00 AM 57.7°F14.3°C 51.9°F11.1°C 81% Calm Calm -- 30.20 in1022.7 mb - 0.00 in0.0 mm 0.00 in0.0 mm
05:10 AM 57.6°F14.2°C 51.8°F11.0°C 81% Calm Calm -- 30.20 in1022.7 mb - 0.00 in0.0 mm 0.00 in0.0 mm
05:20 AM 57.7°F14.3°C 52.2°F11.2°C 82% Calm Calm -- 30.20 in1022.7 mb - 0.00 in0.0 mm 0.00 in0.0 mm
05:30 AM 57.7°F14.3°C 52.2°F11.2°C 82% Calm Calm -- 30.20 in1022.7 mb - 0.00 in0.0 mm 0.00 in0.0 mm
05:40 AM 57.9°F14.4°C 52.8°F11.6°C 83% Calm Calm -- 30.20 in1022.7 mb - 0.00 in0.0 mm 0.00 in0.0 mm
05:50 AM 58.3°F14.6°C 53.5°F11.9°C 84% Calm Calm -- 30.20 in1022.7 mb - 0.00 in0.0 mm 0.00 in0.0 mm
06:00 AM 59.0°F15.0°C 54.2°F12.3°C 84% Calm Calm -- 30.21 in1023.0 mb - 0.00 in0.0 mm 0.00 in0.0 mm
06:10 AM 59.8°F15.4°C 54.9°F12.7°C 84% 2.3 mph E3.7 kmh E 3.5 mph5.6 kmh 30.21 in1023.0 mb - 0.00 in0.0 mm 0.00 in0.0 mm
06:20 AM 60.6°F15.9°C 55.8°F13.2°C 84% 4.6 mph E7.4 kmh E 6.9 mph11.1 kmh 30.21 in1023.0 mb - 0.00 in0.0 mm 0.00 in0.0 mm
06:30 AM 61.5°F16.4°C 56.3°F13.5°C 83% 4.6 mph ENE7.4 kmh ENE 11.5 mph18.5 kmh 30.21 in1023.0 mb - 0.00 in0.0 mm 0.00 in0.0 mm
06:40 AM 62.4°F16.9°C 56.1°F13.4°C 80% 3.5 mph E5.6 kmh E 6.9 mph11.1 kmh 30.21 in1023.0 mb - 0.00 in0.0 mm 0.00 in0.0 mm
06:50 AM 63.2°F17.3°C 56.6°F13.7°C 79% 8.1 mph ENE13.0 kmh ENE 11.5 mph18.5 kmh 30.21 in1023.0 mb - 0.00 in0.0 mm 0.00 in0.0 mm
07:00 AM 64.3°F17.9°C 56.9°F13.8°C 77% 5.8 mph E9.3 kmh E 11.5 mph18.5 kmh 30.20 in1022.7 mb - 0.00 in0.0 mm 0.00 in0.0 mm
07:10 AM 65.4°F18.6°C 56.9°F13.8°C 74% 8.1 mph ENE13.0 kmh ENE 12.7 mph20.4 kmh 30.21 in1023.0 mb - 0.00 in0.0 mm 0.00 in0.0 mm
07:20 AM 66.3°F19.1°C 56.6°F13.7°C 71% 6.9 mph E11.1 kmh E 9.2 mph14.8 kmh 30.21 in1023.0 mb - 0.00 in0.0 mm 0.00 in0.0 mm
07:30 AM 67.3°F19.6°C 56.7°F13.7°C 69% 5.8 mph NE9.3 kmh NE 11.5 mph18.5 kmh 30.21 in1023.0 mb - 0.00 in0.0 mm 0.00 in0.0 mm
07:40 AM 68.2°F20.1°C 57.2°F14.0°C 68% 8.1 mph NE13.0 kmh NE 10.4 mph16.7 kmh 30.21 in1023.0 mb - 0.00 in0.0 mm 0.00 in0.0 mm
07:50 AM 68.8°F20.4°C 57.4°F14.1°C 67% 8.1 mph NE13.0 kmh NE 11.5 mph18.5 kmh 30.21 in1023.0 mb - 0.00 in0.0 mm 0.00 in0.0 mm
08:00 AM 69.3°F20.7°C 57.8°F14.3°C 67% 6.9 mph E11.1 kmh E 9.2 mph14.8 kmh 30.21 in1023.0 mb - 0.00 in0.0 mm 0.00 in0.0 mm
08:10 AM 70.1°F21.2°C 58.2°F14.6°C 66% 8.1 mph NE13.0 kmh NE 10.4 mph16.7 kmh 30.21 in1023.0 mb - 0.00 in0.0 mm 0.00 in0.0 mm
08:20 AM 70.9°F21.6°C 58.1°F14.5°C 64% 3.5 mph NE5.6 kmh NE 6.9 mph11.1 kmh 30.21 in1023.0 mb - 0.00 in0.0 mm 0.00 in0.0 mm
08:30 AM 71.8°F22.1°C 58.6°F14.8°C 63% 8.1 mph NE13.0 kmh NE 11.5 mph18.5 kmh 30.21 in1023.0 mb - 0.00 in0.0 mm 0.00 in0.0 mm
08:40 AM 72.8°F22.7°C 58.6°F14.8°C 61% 5.8 mph E9.3 kmh E 10.4 mph16.7 kmh 30.21 in1023.0 mb - 0.00 in0.0 mm 0.00 in0.0 mm
08:50 AM 73.6°F23.1°C 58.8°F14.9°C 60% 4.6 mph ENE7.4 kmh ENE 10.4 mph16.7 kmh 30.21 in1023.0 mb - 0.00 in0.0 mm 0.00 in0.0 mm
09:00 AM 74.1°F23.4°C 58.8°F14.9°C 59% 3.5 mph E5.6 kmh E 10.4 mph16.7 kmh 30.20 in1022.7 mb - 0.00 in0.0 mm 0.00 in0.0 mm
09:10 AM 74.6°F23.7°C 58.4°F14.7°C 57% 8.1 mph NE13.0 kmh NE 10.4 mph16.7 kmh 30.21 in1023.0 mb - 0.00 in0.0 mm 0.00 in0.0 mm
09:20 AM 75.2°F24.0°C 58.4°F14.7°C 56% 5.8 mph NE9.3 kmh NE 9.2 mph14.8 kmh 30.20 in1022.7 mb - 0.00 in0.0 mm 0.00 in0.0 mm
09:30 AM 75.8°F24.3°C 58.0°F14.4°C 54% 5.8 mph ENE9.3 kmh ENE 6.9 mph11.1 kmh 30.20 in1022.7 mb - 0.00 in0.0 mm 0.00 in0.0 mm
09:40 AM 76.3°F24.6°C 57.9°F14.4°C 53% 5.8 mph NE9.3 kmh NE 9.2 mph14.8 kmh 30.19 in1022.4 mb - 0.00 in0.0 mm 0.00 in0.0 mm
09:50 AM 77.0°F25.0°C 57.5°F14.2°C 51% 5.8 mph NNE9.3 kmh NNE 6.9 mph11.1 kmh 30.19 in1022.4 mb - 0.00 in0.0 mm 0.00 in0.0 mm
10:00 AM 77.5°F25.3°C 57.4°F14.1°C 50% 6.9 mph ENE11.1 kmh ENE 11.5 mph18.5 kmh 30.19 in1022.4 mb - 0.00 in0.0 mm 0.00 in0.0 mm
10:10 AM 77.8°F25.4°C 58.8°F14.9°C 52% 6.9 mph E11.1 kmh E 13.8 mph22.2 kmh 30.19 in1022.4 mb - 0.00 in0.0 mm 0.00 in0.0 mm
10:20 AM 78.0°F25.6°C 57.3°F14.1°C 49% 4.6 mph E7.4 kmh E 5.8 mph9.3 kmh 30.18 in1022.0 mb - 0.00 in0.0 mm 0.00 in0.0 mm
10:30 AM 78.1°F25.6°C 57.9°F14.4°C 50% 3.5 mph ENE5.6 kmh ENE 11.5 mph18.5 kmh 30.18 in1022.0 mb - 0.00 in0.0 mm 0.00 in0.0 mm
10:40 AM 78.2°F25.7°C 58.6°F14.8°C 51% 5.8 mph ENE9.3 kmh ENE 5.8 mph9.3 kmh 30.18 in1022.0 mb - 0.00 in0.0 mm 0.00 in0.0 mm
10:50 AM 78.8°F26.0°C 59.7°F15.4°C 52% 9.2 mph NE14.8 kmh NE 15.0 mph24.1 kmh 30.18 in1022.0 mb - 0.00 in0.0 mm 0.00 in0.0 mm
11:00 AM 79.0°F26.1°C 59.9°F15.5°C 52% 8.1 mph E13.0 kmh E 13.8 mph22.2 kmh 30.18 in1022.0 mb - 0.00 in0.0 mm 0.00 in0.0 mm
11:10 AM 78.9°F26.1°C 60.3°F15.7°C 53% 9.2 mph E14.8 kmh E 12.7 mph20.4 kmh 30.18 in1022.0 mb - 0.00 in0.0 mm 0.00 in0.0 mm
11:20 AM 79.0°F26.1°C 60.9°F16.1°C 54% 6.9 mph ENE11.1 kmh ENE 10.4 mph16.7 kmh 30.17 in1021.7 mb - 0.00 in0.0 mm 0.00 in0.0 mm
11:30 AM 79.1°F26.2°C 61.5°F16.4°C 55% 10.4 mph NE16.7 kmh NE 17.3 mph27.8 kmh 30.17 in1021.7 mb - 0.00 in0.0 mm 0.00 in0.0 mm
11:40 AM 78.9°F26.1°C 61.4°F16.3°C 55% 8.1 mph E13.0 kmh E 12.7 mph20.4 kmh 30.17 in1021.7 mb - 0.00 in0.0 mm 0.00 in0.0 mm
11:50 AM 79.1°F26.2°C 62.1°F16.7°C 56% 8.1 mph ESE13.0 kmh ESE 10.4 mph16.7 kmh 30.16 in1021.3 mb - 0.00 in0.0 mm 0.00 in0.0 mm
12:00 PM 78.8°F26.0°C 61.8°F16.6°C 56% 6.9 mph E11.1 kmh E 8.1 mph13.0 kmh 30.16 in1021.3 mb - 0.00 in0.0 mm 0.00 in0.0 mm
12:10 PM 79.0°F26.1°C 61.9°F16.6°C 56% 8.1 mph ENE13.0 kmh ENE 12.7 mph20.4 kmh 30.16 in1021.3 mb - 0.00 in0.0 mm 0.00 in0.0 mm
12:20 PM 79.3°F26.3°C 62.2°F16.8°C 56% 6.9 mph E11.1 kmh E 12.7 mph20.4 kmh 30.16 in1021.3 mb - 0.00 in0.0 mm 0.00 in0.0 mm
12:30 PM 79.1°F26.2°C 62.1°F16.7°C 56% 8.1 mph E13.0 kmh E 10.4 mph16.7 kmh 30.16 in1021.3 mb - 0.00 in0.0 mm 0.00 in0.0 mm
12:40 PM 79.6°F26.4°C 62.0°F16.7°C 55% 9.2 mph E14.8 kmh E 15.0 mph24.1 kmh 30.15 in1021.0 mb - 0.00 in0.0 mm 0.00 in0.0 mm
12:50 PM 79.3°F26.3°C 62.3°F16.8°C 56% 5.8 mph ENE9.3 kmh ENE 11.5 mph18.5 kmh 30.15 in1021.0 mb - 0.00 in0.0 mm 0.00 in0.0 mm
01:00 PM 78.6°F25.9°C 62.6°F17.0°C 58% 5.8 mph E9.3 kmh E 13.8 mph22.2 kmh 30.14 in1020.7 mb - 0.00 in0.0 mm 0.00 in0.0 mm
01:10 PM 79.0°F26.1°C 62.5°F16.9°C 57% 9.2 mph E14.8 kmh E 11.5 mph18.5 kmh 30.14 in1020.7 mb - 0.00 in0.0 mm 0.00 in0.0 mm
01:20 PM 79.0°F26.1°C 63.0°F17.2°C 58% 8.1 mph NE13.0 kmh NE 17.3 mph27.8 kmh 30.15 in1021.0 mb - 0.00 in0.0 mm 0.00 in0.0 mm
01:30 PM 79.3°F26.3°C 62.7°F17.1°C 57% 8.1 mph E13.0 kmh E 11.5 mph18.5 kmh 30.14 in1020.7 mb - 0.00 in0.0 mm 0.00 in0.0 mm
01:40 PM 79.8°F26.6°C 62.7°F17.1°C 56% 10.4 mph ENE16.7 kmh ENE 11.5 mph18.5 kmh 30.14 in1020.7 mb - 0.00 in0.0 mm 0.00 in0.0 mm
01:50 PM 80.4°F26.9°C 62.8°F17.1°C 55% 9.2 mph ENE14.8 kmh ENE 12.7 mph20.4 kmh 30.13 in1020.3 mb - 0.00 in0.0 mm 0.00 in0.0 mm
02:00 PM 80.6°F27.0°C 63.4°F17.4°C 56% 11.5 mph E18.5 kmh E 17.3 mph27.8 kmh 30.13 in1020.3 mb - 0.00 in0.0 mm 0.00 in0.0 mm
02:10 PM 80.8°F27.1°C 62.6°F17.0°C 54% 10.4 mph E16.7 kmh E 13.8 mph22.2 kmh 30.12 in1020.0 mb - 0.00 in0.0 mm 0.00 in0.0 mm
02:20 PM 81.3°F27.4°C 63.1°F17.3°C 54% 6.9 mph E11.1 kmh E 12.7 mph20.4 kmh 30.12 in1020.0 mb - 0.00 in0.0 mm 0.00 in0.0 mm
02:30 PM 81.4°F27.4°C 62.1°F16.7°C 52% 6.9 mph ENE11.1 kmh ENE 15.0 mph24.1 kmh 30.12 in1020.0 mb - 0.00 in0.0 mm 0.00 in0.0 mm
02:40 PM 81.0°F27.2°C 61.7°F16.5°C 52% 11.5 mph ENE18.5 kmh ENE 16.1 mph25.9 kmh 30.12 in1020.0 mb - 0.00 in0.0 mm 0.00 in0.0 mm
02:50 PM 80.5°F26.9°C 62.3°F16.8°C 54% 8.1 mph E13.0 kmh E 16.1 mph25.9 kmh 30.11 in1019.6 mb - 0.00 in0.0 mm 0.00 in0.0 mm
03:00 PM 80.0°F26.7°C 62.4°F16.9°C 55% 11.5 mph ENE18.5 kmh ENE 16.1 mph25.9 kmh 30.11 in1019.6 mb - 0.00 in0.0 mm 0.00 in0.0 mm
03:10 PM 80.1°F26.7°C 63.0°F17.2°C 56% 9.2 mph NE14.8 kmh NE 17.3 mph27.8 kmh 30.10 in1019.3 mb - 0.00 in0.0 mm 0.00 in0.0 mm
03:20 PM 79.9°F26.6°C 62.8°F17.1°C 56% 8.1 mph E13.0 kmh E 11.5 mph18.5 kmh 30.09 in1019.0 mb - 0.00 in0.0 mm 0.00 in0.0 mm
03:30 PM 79.9°F26.6°C 62.8°F17.1°C 56% 8.1 mph E13.0 kmh E 19.6 mph31.5 kmh 30.10 in1019.3 mb - 0.00 in0.0 mm 0.00 in0.0 mm
03:40 PM 79.9°F26.6°C 62.8°F17.1°C 56% 10.4 mph ENE16.7 kmh ENE 12.7 mph20.4 kmh 30.09 in1019.0 mb - 0.00 in0.0 mm 0.00 in0.0 mm
03:50 PM 79.8°F26.6°C 62.7°F17.1°C 56% 6.9 mph ENE11.1 kmh ENE 11.5 mph18.5 kmh 30.09 in1019.0 mb - 0.00 in0.0 mm 0.00 in0.0 mm
04:00 PM 79.8°F26.6°C 63.2°F17.3°C 57% 9.2 mph E14.8 kmh E 15.0 mph24.1 kmh 30.08 in1018.6 mb - 0.00 in0.0 mm 0.00 in0.0 mm
04:10 PM 79.4°F26.3°C 62.3°F16.8°C 56% 8.1 mph E13.0 kmh E 11.5 mph18.5 kmh 30.08 in1018.6 mb - 0.00 in0.0 mm 0.00 in0.0 mm
04:20 PM 79.2°F26.2°C 62.7°F17.1°C 57% 8.1 mph E13.0 kmh E 13.8 mph22.2 kmh 30.07 in1018.3 mb - 0.00 in0.0 mm 0.00 in0.0 mm
04:30 PM 79.0°F26.1°C 62.5°F16.9°C 57% 11.5 mph NE18.5 kmh NE 13.8 mph22.2 kmh 30.07 in1018.3 mb - 0.00 in0.0 mm 0.00 in0.0 mm
04:40 PM 78.6°F25.9°C 62.6°F17.0°C 58% 10.4 mph NE16.7 kmh NE 18.4 mph29.6 kmh 30.07 in1018.3 mb - 0.00 in0.0 mm 0.00 in0.0 mm
04:50 PM 78.5°F25.8°C 62.5°F16.9°C 58% 6.9 mph ENE11.1 kmh ENE 10.4 mph16.7 kmh 30.06 in1017.9 mb - 0.00 in0.0 mm 0.00 in0.0 mm
05:00 PM 78.4°F25.8°C 62.4°F16.9°C 58% 8.1 mph ENE13.0 kmh ENE 10.4 mph16.7 kmh 30.06 in1017.9 mb - 0.00 in0.0 mm 0.00 in0.0 mm
05:10 PM 78.4°F25.8°C 61.9°F16.6°C 57% 6.9 mph E11.1 kmh E 11.5 mph18.5 kmh 30.06 in1017.9 mb - 0.00 in0.0 mm 0.00 in0.0 mm
05:20 PM 78.4°F25.8°C 62.4°F16.9°C 58% 8.1 mph ENE13.0 kmh ENE 11.5 mph18.5 kmh 30.07 in1018.3 mb - 0.00 in0.0 mm 0.00 in0.0 mm
05:30 PM 78.3°F25.7°C 61.8°F16.6°C 57% 8.1 mph ENE13.0 kmh ENE 9.2 mph14.8 kmh 30.06 in1017.9 mb - 0.00 in0.0 mm 0.00 in0.0 mm
05:40 PM 78.0°F25.6°C 61.5°F16.4°C 57% 6.9 mph ESE11.1 kmh ESE 9.2 mph14.8 kmh 30.06 in1017.9 mb - 0.00 in0.0 mm 0.00 in0.0 mm
05:50 PM 78.0°F25.6°C 62.0°F16.7°C 58% 6.9 mph ENE11.1 kmh ENE 12.7 mph20.4 kmh 30.06 in1017.9 mb - 0.00 in0.0 mm 0.00 in0.0 mm
06:00 PM 77.7°F25.4°C 61.7°F16.5°C 58% 6.9 mph E11.1 kmh E 16.1 mph25.9 kmh 30.06 in1017.9 mb - 0.00 in0.0 mm 0.00 in0.0 mm
06:10 PM 77.3°F25.2°C 61.3°F16.3°C 58% 6.9 mph E11.1 kmh E 8.1 mph13.0 kmh 30.06 in1017.9 mb - 0.00 in0.0 mm 0.00 in0.0 mm
06:20 PM 77.0°F25.0°C 61.6°F16.4°C 59% 3.5 mph E5.6 kmh E 11.5 mph18.5 kmh 30.06 in1017.9 mb - 0.00 in0.0 mm 0.00 in0.0 mm
06:30 PM 76.5°F24.7°C 61.1°F16.2°C 59% 5.8 mph ENE9.3 kmh ENE 10.4 mph16.7 kmh 30.06 in1017.9 mb - 0.00 in0.0 mm 0.00 in0.0 mm
06:40 PM 76.1°F24.5°C 61.2°F16.2°C 60% 3.5 mph E5.6 kmh E 9.2 mph14.8 kmh 30.06 in1017.9 mb - 0.00 in0.0 mm 0.00 in0.0 mm
06:50 PM 75.6°F24.2°C 60.8°F16.0°C 60% 5.8 mph E9.3 kmh E 9.2 mph14.8 kmh 30.06 in1017.9 mb - 0.00 in0.0 mm 0.00 in0.0 mm
07:00 PM 75.2°F24.0°C 60.8°F16.0°C 61% 5.8 mph ENE9.3 kmh ENE 9.2 mph14.8 kmh 30.06 in1017.9 mb - 0.00 in0.0 mm 0.00 in0.0 mm
07:10 PM 74.7°F23.7°C 60.4°F15.8°C 61% 6.9 mph E11.1 kmh E 9.2 mph14.8 kmh 30.06 in1017.9 mb - 0.00 in0.0 mm 0.00 in0.0 mm
07:20 PM 74.2°F23.4°C 60.8°F16.0°C 63% 5.8 mph ENE9.3 kmh ENE 9.2 mph14.8 kmh 30.06 in1017.9 mb - 0.00 in0.0 mm 0.00 in0.0 mm
07:30 PM 73.6°F23.1°C 60.3°F15.7°C 63% 5.8 mph ENE9.3 kmh ENE 10.4 mph16.7 kmh 30.07 in1018.3 mb - 0.00 in0.0 mm 0.00 in0.0 mm
07:40 PM 73.1°F22.8°C 60.6°F15.9°C 65% 5.8 mph E9.3 kmh E 8.1 mph13.0 kmh 30.07 in1018.3 mb - 0.00 in0.0 mm 0.00 in0.0 mm
07:50 PM 72.6°F22.6°C 60.6°F15.9°C 66% 4.6 mph ENE7.4 kmh ENE 6.9 mph11.1 kmh 30.06 in1017.9 mb - 0.00 in0.0 mm 0.00 in0.0 mm
08:00 PM 72.1°F22.3°C 60.5°F15.8°C 67% 5.8 mph ENE9.3 kmh ENE 5.8 mph9.3 kmh 30.06 in1017.9 mb - 0.00 in0.0 mm 0.00 in0.0 mm
08:10 PM 71.5°F21.9°C 60.4°F15.8°C 68% 5.8 mph E9.3 kmh E 8.1 mph13.0 kmh 30.06 in1017.9 mb - 0.00 in0.0 mm 0.00 in0.0 mm
08:20 PM 71.0°F21.7°C 60.3°F15.7°C 69% 4.6 mph ENE7.4 kmh ENE 5.8 mph9.3 kmh 30.06 in1017.9 mb - 0.00 in0.0 mm 0.00 in0.0 mm
08:30 PM 70.6°F21.4°C 60.4°F15.8°C 70% 3.5 mph E5.6 kmh E 4.6 mph7.4 kmh 30.06 in1017.9 mb - 0.00 in0.0 mm 0.00 in0.0 mm
08:40 PM 70.3°F21.3°C 60.1°F15.6°C 70% 1.2 mph E1.9 kmh E 2.3 mph3.7 kmh 30.07 in1018.3 mb - 0.00 in0.0 mm 0.00 in0.0 mm
08:50 PM 69.9°F21.1°C 60.1°F15.6°C 71% 2.3 mph E3.7 kmh E 3.5 mph5.6 kmh 30.07 in1018.3 mb - 0.00 in0.0 mm 0.00 in0.0 mm
09:00 PM 69.6°F20.9°C 59.8°F15.4°C 71% 3.5 mph ENE5.6 kmh ENE 4.6 mph7.4 kmh 30.07 in1018.3 mb - 0.00 in0.0 mm 0.00 in0.0 mm
09:10 PM 69.3°F20.7°C 59.5°F15.3°C 71% 2.3 mph ENE3.7 kmh ENE 4.6 mph7.4 kmh 30.06 in1017.9 mb - 0.00 in0.0 mm 0.00 in0.0 mm
09:20 PM 69.0°F20.6°C 59.6°F15.3°C 72% 2.3 mph ENE3.7 kmh ENE 4.6 mph7.4 kmh 30.06 in1017.9 mb - 0.00 in0.0 mm 0.00 in0.0 mm
09:30 PM 68.8°F20.4°C 59.8°F15.4°C 73% 3.5 mph ENE5.6 kmh ENE 4.6 mph7.4 kmh 30.06 in1017.9 mb - 0.00 in0.0 mm 0.00 in0.0 mm
09:40 PM 68.6°F20.3°C 59.6°F15.3°C 73% Calm Calm -- 30.05 in1017.6 mb - 0.00 in0.0 mm 0.00 in0.0 mm
09:50 PM 68.4°F20.2°C 59.4°F15.2°C 73% 4.6 mph ENE7.4 kmh ENE 8.1 mph13.0 kmh 30.05 in1017.6 mb - 0.00 in0.0 mm 0.00 in0.0 mm
10:00 PM 68.2°F20.1°C 59.6°F15.3°C 74% 2.3 mph ENE3.7 kmh ENE 4.6 mph7.4 kmh 30.05 in1017.6 mb - 0.00 in0.0 mm 0.00 in0.0 mm
10:10 PM 68.1°F20.1°C 59.5°F15.3°C 74% 3.5 mph E5.6 kmh E 4.6 mph7.4 kmh 30.05 in1017.6 mb - 0.00 in0.0 mm 0.00 in0.0 mm
10:20 PM 67.9°F19.9°C 59.3°F15.2°C 74% 2.3 mph E3.7 kmh E 4.6 mph7.4 kmh 30.04 in1017.3 mb - 0.00 in0.0 mm 0.00 in0.0 mm
10:30 PM 67.7°F19.8°C 59.5°F15.3°C 75% 2.3 mph E3.7 kmh E 4.6 mph7.4 kmh 30.04 in1017.3 mb - 0.00 in0.0 mm 0.00 in0.0 mm
10:40 PM 67.5°F19.7°C 59.3°F15.2°C 75% 3.5 mph E5.6 kmh E 6.9 mph11.1 kmh 30.04 in1017.3 mb - 0.00 in0.0 mm 0.00 in0.0 mm
10:50 PM 67.3°F19.6°C 59.5°F15.3°C 76% 4.6 mph E7.4 kmh E 8.1 mph13.0 kmh 30.04 in1017.3 mb - 0.00 in0.0 mm 0.00 in0.0 mm
11:00 PM 67.1°F19.5°C 59.6°F15.3°C 77% 4.6 mph E7.4 kmh E 6.9 mph11.1 kmh 30.03 in1016.9 mb - 0.00 in0.0 mm 0.00 in0.0 mm
11:10 PM 66.9°F19.4°C 59.8°F15.4°C 78% 2.3 mph ENE3.7 kmh ENE 3.5 mph5.6 kmh 30.03 in1016.9 mb - 0.00 in0.0 mm 0.00 in0.0 mm
11:20 PM 66.7°F19.3°C 59.6°F15.3°C 78% 3.5 mph ENE5.6 kmh ENE 6.9 mph11.1 kmh 30.03 in1016.9 mb - 0.00 in0.0 mm 0.00 in0.0 mm
11:30 PM 66.5°F19.2°C 59.8°F15.4°C 79% 3.5 mph ENE5.6 kmh ENE 6.9 mph11.1 kmh 30.03 in1016.9 mb - 0.00 in0.0 mm 0.00 in0.0 mm
11:40 PM 66.3°F19.1°C 59.6°F15.3°C 79% 2.3 mph ENE3.7 kmh ENE 8.1 mph13.0 kmh 30.02 in1016.6 mb - 0.00 in0.0 mm 0.00 in0.0 mm
11:50 PM 66.1°F18.9°C 59.7°F15.4°C 80% 2.3 mph NE3.7 kmh NE 4.6 mph7.4 kmh 30.02 in1016.6 mb - 0.00 in0.0 mm 0.00 in0.0 mm